sensor_id;sensor_type;location;lat;lon;timestamp;P1;durP1;ratioP1;P2;durP2;ratioP2
37771;SDS011;23610;59.380;24.642;2022-07-24T00:00:53;10.43;;;1.58;;
37771;SDS011;23610;59.380;24.642;2022-07-24T00:05:57;3.93;;;2.40;;
37771;SDS011;23610;59.380;24.642;2022-07-24T00:11:02;4.70;;;2.10;;
37771;SDS011;23610;59.380;24.642;2022-07-24T00:16:06;5.32;;;1.95;;
37771;SDS011;23610;59.380;24.642;2022-07-24T00:21:10;7.55;;;2.42;;
37771;SDS011;23610;59.380;24.642;2022-07-24T00:26:13;8.88;;;2.63;;
37771;SDS011;23610;59.380;24.642;2022-07-24T00:31:18;5.07;;;1.75;;
37771;SDS011;23610;59.380;24.642;2022-07-24T00:36:21;3.83;;;2.20;;
37771;SDS011;23610;59.380;24.642;2022-07-24T00:41:24;3.40;;;2.13;;
37771;SDS011;23610;59.380;24.642;2022-07-24T00:46:27;4.78;;;2.75;;
37771;SDS011;23610;59.380;24.642;2022-07-24T00:51:30;7.97;;;2.67;;
37771;SDS011;23610;59.380;24.642;2022-07-24T00:56:35;7.82;;;3.40;;
37771;SDS011;23610;59.380;24.642;2022-07-24T01:01:38;3.60;;;2.10;;
37771;SDS011;23610;59.380;24.642;2022-07-24T01:06:42;7.30;;;2.20;;
37771;SDS011;23610;59.380;24.642;2022-07-24T01:11:46;2.30;;;2.00;;
37771;SDS011;23610;59.380;24.642;2022-07-24T01:16:49;2.67;;;2.13;;
37771;SDS011;23610;59.380;24.642;2022-07-24T01:21:53;4.32;;;2.00;;
37771;SDS011;23610;59.380;24.642;2022-07-24T01:26:56;7.07;;;2.55;;
37771;SDS011;23610;59.380;24.642;2022-07-24T01:31:59;3.22;;;2.60;;
37771;SDS011;23610;59.380;24.642;2022-07-24T01:37:02;4.95;;;2.20;;
37771;SDS011;23610;59.380;24.642;2022-07-24T01:42:04;4.13;;;2.13;;
37771;SDS011;23610;59.380;24.642;2022-07-24T01:47:08;9.68;;;2.40;;
37771;SDS011;23610;59.380;24.642;2022-07-24T01:52:11;5.97;;;2.20;;
37771;SDS011;23610;59.380;24.642;2022-07-24T01:57:14;4.00;;;2.38;;
37771;SDS011;23610;59.380;24.642;2022-07-24T02:02:20;3.47;;;2.55;;
37771;SDS011;23610;59.380;24.642;2022-07-24T02:07:23;8.15;;;2.92;;
37771;SDS011;23610;59.380;24.642;2022-07-24T02:12:26;13.65;;;2.78;;
37771;SDS011;23610;59.380;24.642;2022-07-24T02:17:29;7.45;;;4.07;;
37771;SDS011;23610;59.380;24.642;2022-07-24T02:22:32;5.75;;;3.22;;
37771;SDS011;23610;59.380;24.642;2022-07-24T02:27:35;12.95;;;3.92;;
37771;SDS011;23610;59.380;24.642;2022-07-24T02:32:38;4.15;;;2.22;;
37771;SDS011;23610;59.380;24.642;2022-07-24T02:37:41;5.35;;;2.45;;
37771;SDS011;23610;59.380;24.642;2022-07-24T02:42:46;4.60;;;2.50;;
37771;SDS011;23610;59.380;24.642;2022-07-24T02:47:50;4.68;;;2.60;;
37771;SDS011;23610;59.380;24.642;2022-07-24T02:52:57;10.95;;;2.92;;
37771;SDS011;23610;59.380;24.642;2022-07-24T02:58:00;7.10;;;3.17;;
37771;SDS011;23610;59.380;24.642;2022-07-24T03:03:03;6.57;;;3.13;;
37771;SDS011;23610;59.380;24.642;2022-07-24T03:08:06;3.92;;;3.10;;
37771;SDS011;23610;59.380;24.642;2022-07-24T03:13:08;4.18;;;2.88;;
37771;SDS011;23610;59.380;24.642;2022-07-24T03:18:11;11.45;;;3.13;;
37771;SDS011;23610;59.380;24.642;2022-07-24T03:23:22;8.50;;;3.38;;
37771;SDS011;23610;59.380;24.642;2022-07-24T03:28:25;11.90;;;3.42;;
37771;SDS011;23610;59.380;24.642;2022-07-24T03:33:27;7.07;;;3.60;;
37771;SDS011;23610;59.380;24.642;2022-07-24T03:38:30;4.10;;;3.28;;
37771;SDS011;23610;59.380;24.642;2022-07-24T03:43:33;10.65;;;3.60;;
37771;SDS011;23610;59.380;24.642;2022-07-24T03:48:36;7.18;;;2.60;;
37771;SDS011;23610;59.380;24.642;2022-07-24T03:53:38;10.10;;;3.47;;
37771;SDS011;23610;59.380;24.642;2022-07-24T03:58:42;10.43;;;3.35;;
37771;SDS011;23610;59.380;24.642;2022-07-24T04:03:44;4.00;;;2.95;;
37771;SDS011;23610;59.380;24.642;2022-07-24T04:08:47;7.65;;;3.38;;
37771;SDS011;23610;59.380;24.642;2022-07-24T04:13:49;5.28;;;3.50;;
37771;SDS011;23610;59.380;24.642;2022-07-24T04:18:52;5.60;;;3.63;;
37771;SDS011;23610;59.380;24.642;2022-07-24T04:23:55;4.55;;;3.65;;
37771;SDS011;23610;59.380;24.642;2022-07-24T04:28:57;9.00;;;3.70;;
37771;SDS011;23610;59.380;24.642;2022-07-24T04:34:00;5.38;;;4.03;;
37771;SDS011;23610;59.380;24.642;2022-07-24T04:39:08;12.18;;;4.32;;
37771;SDS011;23610;59.380;24.642;2022-07-24T04:44:11;10.73;;;3.78;;
37771;SDS011;23610;59.380;24.642;2022-07-24T04:49:14;7.82;;;3.95;;
37771;SDS011;23610;59.380;24.642;2022-07-24T04:54:17;7.80;;;3.30;;
37771;SDS011;23610;59.380;24.642;2022-07-24T04:59:19;5.93;;;3.10;;
37771;SDS011;23610;59.380;24.642;2022-07-24T05:04:22;4.20;;;2.65;;
37771;SDS011;23610;59.380;24.642;2022-07-24T05:09:24;3.42;;;2.90;;
37771;SDS011;23610;59.380;24.642;2022-07-24T05:14:27;7.22;;;2.70;;
37771;SDS011;23610;59.380;24.642;2022-07-24T05:19:30;4.50;;;2.92;;
37771;SDS011;23610;59.380;24.642;2022-07-24T05:24:32;5.93;;;2.10;;
37771;SDS011;23610;59.380;24.642;2022-07-24T05:29:35;4.53;;;1.75;;
37771;SDS011;23610;59.380;24.642;2022-07-24T05:34:42;8.27;;;2.28;;
37771;SDS011;23610;59.380;24.642;2022-07-24T05:39:44;5.03;;;2.58;;
37771;SDS011;23610;59.380;24.642;2022-07-24T05:44:47;2.75;;;2.05;;
37771;SDS011;23610;59.380;24.642;2022-07-24T05:50:00;3.97;;;2.10;;
37771;SDS011;23610;59.380;24.642;2022-07-24T05:55:03;6.30;;;2.28;;
37771;SDS011;23610;59.380;24.642;2022-07-24T06:00:07;4.00;;;2.08;;
37771;SDS011;23610;59.380;24.642;2022-07-24T06:05:17;2.08;;;1.48;;
37771;SDS011;23610;59.380;24.642;2022-07-24T06:10:20;2.35;;;1.70;;
37771;SDS011;23610;59.380;24.642;2022-07-24T06:15:26;2.30;;;2.10;;
37771;SDS011;23610;59.380;24.642;2022-07-24T06:20:30;3.13;;;1.70;;
37771;SDS011;23610;59.380;24.642;2022-07-24T06:25:33;2.03;;;1.48;;
37771;SDS011;23610;59.380;24.642;2022-07-24T06:30:35;3.78;;;1.77;;
37771;SDS011;23610;59.380;24.642;2022-07-24T06:35:38;2.80;;;1.42;;
37771;SDS011;23610;59.380;24.642;2022-07-24T06:40:41;2.88;;;1.73;;
37771;SDS011;23610;59.380;24.642;2022-07-24T06:45:43;2.97;;;1.67;;
37771;SDS011;23610;59.380;24.642;2022-07-24T06:50:46;4.00;;;1.85;;
37771;SDS011;23610;59.380;24.642;2022-07-24T06:55:49;2.35;;;1.10;;
37771;SDS011;23610;59.380;24.642;2022-07-24T07:00:55;2.15;;;1.40;;
37771;SDS011;23610;59.380;24.642;2022-07-24T07:05:57;1.65;;;1.40;;
37771;SDS011;23610;59.380;24.642;2022-07-24T07:11:00;3.65;;;1.50;;
37771;SDS011;23610;59.380;24.642;2022-07-24T07:16:02;5.25;;;1.50;;
37771;SDS011;23610;59.380;24.642;2022-07-24T07:21:06;1.73;;;1.63;;
37771;SDS011;23610;59.380;24.642;2022-07-24T07:26:08;1.67;;;1.30;;
37771;SDS011;23610;59.380;24.642;2022-07-24T07:31:11;3.47;;;1.88;;
37771;SDS011;23610;59.380;24.642;2022-07-24T07:36:14;1.00;;;1.00;;
37771;SDS011;23610;59.380;24.642;2022-07-24T07:41:16;2.00;;;1.17;;
37771;SDS011;23610;59.380;24.642;2022-07-24T07:46:20;1.52;;;1.15;;
37771;SDS011;23610;59.380;24.642;2022-07-24T07:51:23;1.35;;;1.27;;
37771;SDS011;23610;59.380;24.642;2022-07-24T07:56:26;3.28;;;1.38;;
37771;SDS011;23610;59.380;24.642;2022-07-24T08:01:32;2.10;;;1.77;;
37771;SDS011;23610;59.380;24.642;2022-07-24T08:06:35;1.27;;;1.17;;
37771;SDS011;23610;59.380;24.642;2022-07-24T08:11:37;1.88;;;1.00;;
37771;SDS011;23610;59.380;24.642;2022-07-24T08:16:40;1.15;;;1.10;;
37771;SDS011;23610;59.380;24.642;2022-07-24T08:21:43;1.50;;;1.40;;
37771;SDS011;23610;59.380;24.642;2022-07-24T08:26:47;1.45;;;1.13;;
37771;SDS011;23610;59.380;24.642;2022-07-24T08:31:50;1.67;;;1.03;;
37771;SDS011;23610;59.380;24.642;2022-07-24T08:36:53;1.38;;;1.10;;
37771;SDS011;23610;59.380;24.642;2022-07-24T08:41:56;2.05;;;1.15;;
37771;SDS011;23610;59.380;24.642;2022-07-24T08:46:59;4.28;;;1.33;;
37771;SDS011;23610;59.380;24.642;2022-07-24T08:52:03;2.17;;;1.50;;
37771;SDS011;23610;59.380;24.642;2022-07-24T08:57:09;1.40;;;1.30;;
37771;SDS011;23610;59.380;24.642;2022-07-24T09:02:12;1.40;;;1.33;;
37771;SDS011;23610;59.380;24.642;2022-07-24T09:07:16;5.18;;;1.55;;
37771;SDS011;23610;59.380;24.642;2022-07-24T09:12:24;0.80;;;0.80;;
37771;SDS011;23610;59.380;24.642;2022-07-24T09:17:26;1.17;;;1.08;;
37771;SDS011;23610;59.380;24.642;2022-07-24T09:27:39;6.57;;;1.10;;
37771;SDS011;23610;59.380;24.642;2022-07-24T09:32:59;1.35;;;1.00;;
37771;SDS011;23610;59.380;24.642;2022-07-24T09:38:07;1.27;;;1.10;;
37771;SDS011;23610;59.380;24.642;2022-07-24T09:43:29;1.20;;;0.80;;
37771;SDS011;23610;59.380;24.642;2022-07-24T09:48:38;1.87;;;0.70;;
37771;SDS011;23610;59.380;24.642;2022-07-24T09:53:55;1.40;;;0.57;;
37771;SDS011;23610;59.380;24.642;2022-07-24T09:59:00;1.60;;;1.50;;
37771;SDS011;23610;59.380;24.642;2022-07-24T10:04:09;3.15;;;2.10;;
37771;SDS011;23610;59.380;24.642;2022-07-24T10:09:14;0.90;;;0.90;;
37771;SDS011;23610;59.380;24.642;2022-07-24T10:14:22;1.48;;;0.60;;
37771;SDS011;23610;59.380;24.642;2022-07-24T10:19:27;0.68;;;0.68;;
37771;SDS011;23610;59.380;24.642;2022-07-24T10:24:59;2.78;;;2.50;;
37771;SDS011;23610;59.380;24.642;2022-07-24T10:30:09;4.38;;;3.67;;
37771;SDS011;23610;59.380;24.642;2022-07-24T10:40:37;9.63;;;5.25;;
37771;SDS011;23610;59.380;24.642;2022-07-24T10:56:16;0.95;;;0.80;;
37771;SDS011;23610;59.380;24.642;2022-07-24T11:01:28;1.27;;;1.17;;
37771;SDS011;23610;59.380;24.642;2022-07-24T11:06:48;0.60;;;0.60;;
37771;SDS011;23610;59.380;24.642;2022-07-24T11:16:56;1.77;;;0.82;;
37771;SDS011;23610;59.380;24.642;2022-07-24T11:22:02;0.95;;;0.93;;
37771;SDS011;23610;59.380;24.642;2022-07-24T11:27:13;0.95;;;0.95;;
37771;SDS011;23610;59.380;24.642;2022-07-24T11:32:18;1.10;;;1.00;;
37771;SDS011;23610;59.380;24.642;2022-07-24T11:37:22;1.07;;;0.97;;
37771;SDS011;23610;59.380;24.642;2022-07-24T11:42:36;0.80;;;0.80;;
37771;SDS011;23610;59.380;24.642;2022-07-24T11:47:39;0.98;;;0.70;;
37771;SDS011;23610;59.380;24.642;2022-07-24T11:52:41;1.23;;;0.90;;
37771;SDS011;23610;59.380;24.642;2022-07-24T11:57:45;1.15;;;0.85;;
37771;SDS011;23610;59.380;24.642;2022-07-24T12:03:11;1.20;;;1.02;;
37771;SDS011;23610;59.380;24.642;2022-07-24T12:08:18;1.20;;;1.10;;
37771;SDS011;23610;59.380;24.642;2022-07-24T12:13:29;1.20;;;1.10;;
37771;SDS011;23610;59.380;24.642;2022-07-24T12:18:34;0.80;;;0.80;;
37771;SDS011;23610;59.380;24.642;2022-07-24T12:23:36;0.80;;;0.80;;
37771;SDS011;23610;59.380;24.642;2022-07-24T12:28:40;0.75;;;0.75;;
37771;SDS011;23610;59.380;24.642;2022-07-24T12:33:42;1.88;;;1.13;;
37771;SDS011;23610;59.380;24.642;2022-07-24T12:38:56;5.30;;;1.07;;
37771;SDS011;23610;59.380;24.642;2022-07-24T12:44:03;1.48;;;1.38;;
37771;SDS011;23610;59.380;24.642;2022-07-24T12:54:14;1.45;;;1.33;;
37771;SDS011;23610;59.380;24.642;2022-07-24T12:59:31;1.88;;;1.17;;
37771;SDS011;23610;59.380;24.642;2022-07-24T13:04:45;1.83;;;1.73;;
37771;SDS011;23610;59.380;24.642;2022-07-24T13:09:51;1.00;;;1.00;;
37771;SDS011;23610;59.380;24.642;2022-07-24T13:14:57;1.13;;;1.08;;
37771;SDS011;23610;59.380;24.642;2022-07-24T13:20:00;1.08;;;1.00;;
37771;SDS011;23610;59.380;24.642;2022-07-24T13:25:04;1.92;;;1.00;;
37771;SDS011;23610;59.380;24.642;2022-07-24T13:30:07;1.48;;;0.80;;
37771;SDS011;23610;59.380;24.642;2022-07-24T13:35:10;1.08;;;0.75;;
37771;SDS011;23610;59.380;24.642;2022-07-24T13:40:13;2.85;;;1.00;;
37771;SDS011;23610;59.380;24.642;2022-07-24T13:45:16;1.73;;;1.10;;
37771;SDS011;23610;59.380;24.642;2022-07-24T13:50:18;1.30;;;1.13;;
37771;SDS011;23610;59.380;24.642;2022-07-24T13:55:22;1.10;;;1.05;;
37771;SDS011;23610;59.380;24.642;2022-07-24T14:00:24;1.73;;;1.63;;
37771;SDS011;23610;59.380;24.642;2022-07-24T14:05:27;1.10;;;1.08;;
37771;SDS011;23610;59.380;24.642;2022-07-24T14:10:30;2.13;;;1.30;;
37771;SDS011;23610;59.380;24.642;2022-07-24T14:15:33;1.10;;;1.10;;
37771;SDS011;23610;59.380;24.642;2022-07-24T14:20:37;2.15;;;1.90;;
37771;SDS011;23610;59.380;24.642;2022-07-24T14:25:40;2.08;;;1.25;;
37771;SDS011;23610;59.380;24.642;2022-07-24T14:30:44;1.87;;;1.27;;
37771;SDS011;23610;59.380;24.642;2022-07-24T14:35:47;3.38;;;1.40;;
37771;SDS011;23610;59.380;24.642;2022-07-24T14:40:50;1.40;;;1.30;;
37771;SDS011;23610;59.380;24.642;2022-07-24T14:45:53;3.45;;;1.60;;
37771;SDS011;23610;59.380;24.642;2022-07-24T14:50:56;1.45;;;1.35;;
37771;SDS011;23610;59.380;24.642;2022-07-24T14:55:59;1.02;;;0.80;;
37771;SDS011;23610;59.380;24.642;2022-07-24T15:01:02;1.30;;;1.20;;
37771;SDS011;23610;59.380;24.642;2022-07-24T15:06:06;2.50;;;1.30;;
37771;SDS011;23610;59.380;24.642;2022-07-24T15:11:10;1.50;;;1.38;;
37771;SDS011;23610;59.380;24.642;2022-07-24T15:16:13;1.70;;;1.42;;
37771;SDS011;23610;59.380;24.642;2022-07-24T15:21:17;1.38;;;1.23;;
37771;SDS011;23610;59.380;24.642;2022-07-24T15:26:20;2.90;;;2.28;;
37771;SDS011;23610;59.380;24.642;2022-07-24T15:31:23;3.70;;;2.53;;
37771;SDS011;23610;59.380;24.642;2022-07-24T15:36:27;3.40;;;2.60;;
37771;SDS011;23610;59.380;24.642;2022-07-24T15:41:30;8.10;;;7.03;;
37771;SDS011;23610;59.380;24.642;2022-07-24T15:46:33;1.23;;;1.17;;
37771;SDS011;23610;59.380;24.642;2022-07-24T15:51:39;2.65;;;1.13;;
37771;SDS011;23610;59.380;24.642;2022-07-24T15:56:42;1.92;;;1.13;;
37771;SDS011;23610;59.380;24.642;2022-07-24T16:01:46;1.20;;;0.93;;
37771;SDS011;23610;59.380;24.642;2022-07-24T16:06:49;1.20;;;1.10;;
37771;SDS011;23610;59.380;24.642;2022-07-24T16:11:52;1.30;;;1.25;;
37771;SDS011;23610;59.380;24.642;2022-07-24T16:16:56;1.98;;;1.50;;
37771;SDS011;23610;59.380;24.642;2022-07-24T16:21:59;1.50;;;1.40;;
37771;SDS011;23610;59.380;24.642;2022-07-24T16:27:03;2.22;;;1.17;;
37771;SDS011;23610;59.380;24.642;2022-07-24T16:32:06;1.17;;;1.10;;
37771;SDS011;23610;59.380;24.642;2022-07-24T16:37:10;2.92;;;1.30;;
37771;SDS011;23610;59.380;24.642;2022-07-24T16:42:13;6.10;;;1.75;;
37771;SDS011;23610;59.380;24.642;2022-07-24T16:47:17;3.40;;;0.90;;
37771;SDS011;23610;59.380;24.642;2022-07-24T16:52:21;1.98;;;1.40;;
37771;SDS011;23610;59.380;24.642;2022-07-24T16:57:45;1.33;;;0.90;;
37771;SDS011;23610;59.380;24.642;2022-07-24T17:02:47;3.15;;;1.25;;
37771;SDS011;23610;59.380;24.642;2022-07-24T17:07:50;1.60;;;1.30;;
37771;SDS011;23610;59.380;24.642;2022-07-24T17:12:54;1.77;;;1.65;;
37771;SDS011;23610;59.380;24.642;2022-07-24T17:18:03;1.50;;;1.27;;
37771;SDS011;23610;59.380;24.642;2022-07-24T17:23:10;1.55;;;1.45;;
37771;SDS011;23610;59.380;24.642;2022-07-24T17:28:15;1.38;;;1.30;;
37771;SDS011;23610;59.380;24.642;2022-07-24T17:33:18;1.70;;;1.60;;
37771;SDS011;23610;59.380;24.642;2022-07-24T17:38:24;1.77;;;1.67;;
37771;SDS011;23610;59.380;24.642;2022-07-24T17:43:28;1.77;;;1.67;;
37771;SDS011;23610;59.380;24.642;2022-07-24T17:48:31;2.33;;;2.03;;
37771;SDS011;23610;59.380;24.642;2022-07-24T17:53:35;3.00;;;2.70;;
37771;SDS011;23610;59.380;24.642;2022-07-24T17:58:38;2.75;;;2.47;;
37771;SDS011;23610;59.380;24.642;2022-07-24T18:03:41;9.20;;;2.22;;
37771;SDS011;23610;59.380;24.642;2022-07-24T18:08:47;2.15;;;1.95;;
37771;SDS011;23610;59.380;24.642;2022-07-24T18:13:50;1.80;;;1.70;;
37771;SDS011;23610;59.380;24.642;2022-07-24T18:18:54;1.77;;;1.67;;
37771;SDS011;23610;59.380;24.642;2022-07-24T18:23:57;1.45;;;1.35;;
37771;SDS011;23610;59.380;24.642;2022-07-24T18:29:01;4.90;;;1.85;;
37771;SDS011;23610;59.380;24.642;2022-07-24T18:34:05;2.67;;;2.10;;
37771;SDS011;23610;59.380;24.642;2022-07-24T18:39:08;3.40;;;3.10;;
37771;SDS011;23610;59.380;24.642;2022-07-24T18:44:11;3.53;;;3.15;;
37771;SDS011;23610;59.380;24.642;2022-07-24T18:49:14;3.67;;;3.00;;
37771;SDS011;23610;59.380;24.642;2022-07-24T18:54:22;3.03;;;2.83;;
37771;SDS011;23610;59.380;24.642;2022-07-24T18:59:26;3.03;;;2.83;;
37771;SDS011;23610;59.380;24.642;2022-07-24T19:04:29;4.43;;;3.42;;
37771;SDS011;23610;59.380;24.642;2022-07-24T19:09:32;3.33;;;3.08;;
37771;SDS011;23610;59.380;24.642;2022-07-24T19:14:36;3.77;;;3.40;;
37771;SDS011;23610;59.380;24.642;2022-07-24T19:19:39;6.03;;;4.47;;
37771;SDS011;23610;59.380;24.642;2022-07-24T19:24:42;4.35;;;3.97;;
37771;SDS011;23610;59.380;24.642;2022-07-24T19:30:04;6.60;;;4.35;;
37771;SDS011;23610;59.380;24.642;2022-07-24T19:35:07;4.95;;;3.97;;
37771;SDS011;23610;59.380;24.642;2022-07-24T19:40:11;4.17;;;3.83;;
37771;SDS011;23610;59.380;24.642;2022-07-24T19:45:15;3.95;;;3.63;;
37771;SDS011;23610;59.380;24.642;2022-07-24T19:50:19;3.53;;;3.22;;
37771;SDS011;23610;59.380;24.642;2022-07-24T19:55:56;2.75;;;2.55;;
37771;SDS011;23610;59.380;24.642;2022-07-24T20:00:59;3.25;;;3.05;;
37771;SDS011;23610;59.380;24.642;2022-07-24T20:06:01;3.00;;;2.70;;
37771;SDS011;23610;59.380;24.642;2022-07-24T20:11:04;2.92;;;2.72;;
37771;SDS011;23610;59.380;24.642;2022-07-24T20:16:07;3.60;;;2.90;;
37771;SDS011;23610;59.380;24.642;2022-07-24T20:21:10;3.58;;;3.30;;
37771;SDS011;23610;59.380;24.642;2022-07-24T20:26:14;3.50;;;3.30;;
37771;SDS011;23610;59.380;24.642;2022-07-24T20:31:17;3.30;;;2.88;;
37771;SDS011;23610;59.380;24.642;2022-07-24T20:36:20;4.30;;;2.97;;
37771;SDS011;23610;59.380;24.642;2022-07-24T20:41:22;3.15;;;2.85;;
37771;SDS011;23610;59.380;24.642;2022-07-24T20:46:25;2.95;;;2.75;;
37771;SDS011;23610;59.380;24.642;2022-07-24T20:51:28;3.13;;;2.63;;
37771;SDS011;23610;59.380;24.642;2022-07-24T20:56:31;2.72;;;2.53;;
37771;SDS011;23610;59.380;24.642;2022-07-24T21:01:34;3.80;;;2.67;;
37771;SDS011;23610;59.380;24.642;2022-07-24T21:06:37;2.83;;;2.63;;
37771;SDS011;23610;59.380;24.642;2022-07-24T21:11:39;2.88;;;2.53;;
37771;SDS011;23610;59.380;24.642;2022-07-24T21:16:42;3.00;;;2.70;;
37771;SDS011;23610;59.380;24.642;2022-07-24T21:21:45;3.47;;;2.60;;
37771;SDS011;23610;59.380;24.642;2022-07-24T21:26:47;4.40;;;2.58;;
37771;SDS011;23610;59.380;24.642;2022-07-24T21:31:50;2.55;;;2.28;;
37771;SDS011;23610;59.380;24.642;2022-07-24T21:36:53;3.50;;;2.28;;
37771;SDS011;23610;59.380;24.642;2022-07-24T21:41:55;3.42;;;2.35;;
37771;SDS011;23610;59.380;24.642;2022-07-24T21:46:58;2.42;;;2.08;;
37771;SDS011;23610;59.380;24.642;2022-07-24T21:52:01;3.33;;;2.45;;
37771;SDS011;23610;59.380;24.642;2022-07-24T21:57:03;1.85;;;1.75;;
37771;SDS011;23610;59.380;24.642;2022-07-24T22:02:06;2.30;;;2.10;;
37771;SDS011;23610;59.380;24.642;2022-07-24T22:07:09;1.75;;;1.60;;
37771;SDS011;23610;59.380;24.642;2022-07-24T22:12:11;4.60;;;1.95;;
37771;SDS011;23610;59.380;24.642;2022-07-24T22:17:14;1.85;;;1.70;;
37771;SDS011;23610;59.380;24.642;2022-07-24T22:22:16;2.88;;;1.77;;
37771;SDS011;23610;59.380;24.642;2022-07-24T22:27:21;2.20;;;2.00;;
37771;SDS011;23610;59.380;24.642;2022-07-24T22:32:23;1.83;;;1.73;;
37771;SDS011;23610;59.380;24.642;2022-07-24T22:37:27;2.63;;;1.92;;
37771;SDS011;23610;59.380;24.642;2022-07-24T22:42:34;2.22;;;1.38;;
37771;SDS011;23610;59.380;24.642;2022-07-24T22:47:41;1.88;;;1.77;;
37771;SDS011;23610;59.380;24.642;2022-07-24T22:52:45;1.77;;;1.67;;
37771;SDS011;23610;59.380;24.642;2022-07-24T22:57:48;1.23;;;1.23;;
37771;SDS011;23610;59.380;24.642;2022-07-24T23:02:51;2.15;;;1.80;;
37771;SDS011;23610;59.380;24.642;2022-07-24T23:07:54;2.83;;;1.70;;
37771;SDS011;23610;59.380;24.642;2022-07-24T23:12:56;1.50;;;1.40;;
37771;SDS011;23610;59.380;24.642;2022-07-24T23:18:04;4.85;;;1.42;;
37771;SDS011;23610;59.380;24.642;2022-07-24T23:23:07;1.70;;;1.60;;
37771;SDS011;23610;59.380;24.642;2022-07-24T23:28:12;2.03;;;1.88;;
37771;SDS011;23610;59.380;24.642;2022-07-24T23:33:15;1.77;;;1.50;;
37771;SDS011;23610;59.380;24.642;2022-07-24T23:38:18;6.82;;;1.33;;
37771;SDS011;23610;59.380;24.642;2022-07-24T23:43:21;3.65;;;1.20;;
37771;SDS011;23610;59.380;24.642;2022-07-24T23:48:23;2.15;;;1.20;;
37771;SDS011;23610;59.380;24.642;2022-07-24T23:53:28;1.30;;;1.20;;
37771;SDS011;23610;59.380;24.642;2022-07-24T23:58:31;4.10;;;1.35;;
